createdAt,value
2024-02-23T00:01:49.038Z,99219.16
2024-02-23T00:04:16.602Z,99216.64
2024-02-23T00:06:44.156Z,99217.71
2024-02-23T00:09:11.715Z,99215.57
2024-02-23T00:11:45.897Z,99211.54
2024-02-23T00:14:14.420Z,99204.20
2024-02-23T00:16:42.124Z,99206.19
2024-02-23T00:19:10.943Z,99200.02
2024-02-23T00:21:39.748Z,99202.23
2024-02-23T00:24:07.742Z,99196.23
2024-02-23T00:26:35.373Z,99195.76
2024-02-23T00:29:03.997Z,99195.65
2024-02-23T00:31:31.602Z,99193.98
2024-02-23T00:33:59.351Z,99190.70
2024-02-23T00:36:27.009Z,99188.36
2024-02-23T00:38:54.538Z,99188.25
2024-02-23T00:41:22.064Z,99186.33
2024-02-23T00:43:49.626Z,99189.66
2024-02-23T00:46:17.603Z,99188.27
2024-02-23T00:48:45.352Z,99190.33
2024-02-23T00:51:12.861Z,99192.03
2024-02-23T00:53:40.396Z,99186.18
2024-02-23T00:56:08.146Z,99190.16
2024-02-23T00:58:35.647Z,99191.66
2024-02-23T01:01:03.537Z,99189.42
2024-02-23T01:03:31.075Z,99196.12
2024-02-23T01:05:58.714Z,99192.58
2024-02-23T01:08:26.319Z,99192.10
2024-02-23T01:10:53.820Z,99188.02
2024-02-23T01:13:21.413Z,99186.52
2024-02-23T01:15:48.959Z,99188.45
2024-02-23T01:18:16.650Z,99184.02
2024-02-23T01:20:44.412Z,99189.16
2024-02-23T01:23:12.028Z,99185.19
2024-02-23T01:25:40.419Z,99187.50
2024-02-23T01:28:07.893Z,99182.73
2024-02-23T01:30:35.414Z,99179.02
2024-02-23T01:33:04.099Z,99181.11
2024-02-23T01:35:32.197Z,99178.98
2024-02-23T01:38:00.007Z,99177.59
2024-02-23T01:40:27.654Z,99173.98
2024-02-23T01:43:07.672Z,99173.55
2024-02-23T01:45:35.159Z,99171.56
2024-02-23T01:48:02.881Z,99168.02
2024-02-23T01:50:30.689Z,99174.88
2024-02-23T01:53:00.353Z,99174.84
2024-02-23T01:55:27.845Z,99178.10
2024-02-23T01:57:55.345Z,99182.41
2024-02-23T02:00:22.830Z,99175.70
2024-02-23T02:02:53.093Z,99183.44
2024-02-23T02:05:20.664Z,99177.42
2024-02-23T02:07:49.151Z,99177.52
2024-02-23T02:10:16.651Z,99165.40
2024-02-23T02:12:44.277Z,99168.79
2024-02-23T02:15:11.757Z,99163.74
2024-02-23T02:17:39.325Z,99163.53
2024-02-23T02:20:08.116Z,99165.30
2024-02-23T02:22:35.752Z,99165.02
2024-02-23T02:25:03.488Z,99158.11
2024-02-23T02:27:31.021Z,99159.98
2024-02-23T02:29:59.040Z,99158.11
2024-02-23T02:32:26.630Z,99158.17
2024-02-23T02:34:54.395Z,99150.98
2024-02-23T02:37:22.003Z,99155.76
2024-02-23T02:39:49.489Z,99150.77
2024-02-23T02:42:17.669Z,99149.48
2024-02-23T02:44:45.164Z,99148.04
2024-02-23T02:47:12.791Z,99146.91
2024-02-23T02:49:41.197Z,99147.60
2024-02-23T02:52:09.841Z,99149.38
2024-02-23T02:54:37.293Z,99147.41
2024-02-23T02:57:04.848Z,99154.65
2024-02-23T02:59:36.794Z,99155.88
2024-02-23T03:02:04.682Z,99158.71
2024-02-23T03:04:32.312Z,99159.73
2024-02-23T03:06:59.799Z,99160.44
2024-02-23T03:09:27.376Z,99157.27
2024-02-23T03:11:54.866Z,99160.05
2024-02-23T03:14:23.249Z,99157.75
2024-02-23T03:16:50.889Z,99157.48
2024-02-23T03:19:21.284Z,99155.44
2024-02-23T03:21:48.920Z,99152.98
2024-02-23T03:24:16.433Z,99150.23
2024-02-23T03:26:44.074Z,99154.27
2024-02-23T03:29:12.098Z,99152.59
2024-02-23T03:31:39.715Z,99155.55
2024-02-23T03:34:07.204Z,99150.61
2024-02-23T03:36:35.854Z,99148.95
2024-02-23T03:39:03.351Z,99141.17
2024-02-23T03:41:30.900Z,99147.88
2024-02-23T03:43:58.615Z,99146.90
2024-02-23T03:46:26.226Z,99153.18
2024-02-23T03:48:54.068Z,99154.73
2024-02-23T03:51:21.611Z,99152.33
2024-02-23T03:53:49.106Z,99148.36
2024-02-23T03:56:17.349Z,99148.84
2024-02-23T03:58:44.836Z,99144.08
2024-02-23T04:01:12.413Z,99151.58
2024-02-23T04:03:39.941Z,99151.04
2024-02-23T04:06:08.798Z,99154.73
2024-02-23T04:08:36.856Z,99153.23
2024-02-23T04:11:04.681Z,99154.64
2024-02-23T04:13:32.285Z,99149.86
2024-02-23T04:16:02.349Z,99153.00
2024-02-23T04:18:29.999Z,99150.44
2024-02-23T04:20:57.448Z,99150.91
2024-02-23T04:23:25.126Z,99151.14
2024-02-23T04:25:52.721Z,99147.91
2024-02-23T04:28:20.208Z,99153.83
2024-02-23T04:30:47.765Z,99153.44
2024-02-23T04:33:15.302Z,99149.91
2024-02-23T04:35:42.942Z,99154.30
2024-02-23T04:38:10.505Z,99156.66
2024-02-23T04:40:38.144Z,99158.11
2024-02-23T04:43:05.725Z,99166.85
2024-02-23T04:45:33.334Z,99171.73
2024-02-23T04:48:00.875Z,99162.30
2024-02-23T04:50:28.469Z,99160.67
2024-02-23T04:52:56.057Z,99165.84
2024-02-23T04:55:23.552Z,99168.52
2024-02-23T04:57:51.343Z,99174.10
2024-02-23T05:00:19.017Z,99173.98
2024-02-23T05:02:47.723Z,99179.36
2024-02-23T05:05:15.304Z,99179.80
2024-02-23T05:07:42.954Z,99179.58
2024-02-23T05:10:11.353Z,99185.48
2024-02-23T05:12:38.860Z,99185.80
2024-02-23T05:15:06.828Z,99183.05
2024-02-23T05:17:34.388Z,99187.73
2024-02-23T05:20:02.201Z,99191.48
2024-02-23T05:22:29.770Z,99192.49
2024-02-23T05:24:57.349Z,99194.33
2024-02-23T05:27:24.837Z,99198.98
2024-02-23T05:29:52.323Z,99196.41
2024-02-23T05:32:20.466Z,99199.10
2024-02-23T05:34:47.994Z,99194.80
2024-02-23T05:37:15.522Z,99197.80
2024-02-23T05:39:44.815Z,99198.17
2024-02-23T05:42:14.415Z,99199.84
2024-02-23T05:44:44.870Z,99202.36
2024-02-23T05:47:12.409Z,99209.13
2024-02-23T05:49:39.962Z,99206.83
2024-02-23T05:52:07.962Z,99212.67
2024-02-23T05:54:35.510Z,99208.96
2024-02-23T05:57:04.281Z,99213.84
2024-02-23T05:59:31.982Z,99212.40
2024-02-23T06:01:59.619Z,99212.55
2024-02-23T06:04:28.346Z,99218.56
2024-02-23T06:06:56.087Z,99226.67
2024-02-23T06:09:23.764Z,99229.79
2024-02-23T06:11:51.417Z,99225.38
2024-02-23T06:14:19.175Z,99228.81
2024-02-23T06:16:46.777Z,99233.69
2024-02-23T06:19:14.279Z,99236.91
2024-02-23T06:21:41.825Z,99240.55
2024-02-23T06:24:10.114Z,99241.42
2024-02-23T06:26:37.819Z,99245.23
2024-02-23T06:29:07.277Z,99243.62
2024-02-23T06:31:36.067Z,99234.70
2024-02-23T06:34:03.843Z,99234.17
2024-02-23T06:36:31.705Z,99228.32
2024-02-23T06:38:59.204Z,99229.60
2024-02-23T06:41:27.815Z,99230.98
2024-02-23T06:43:55.962Z,99231.11
2024-02-23T06:46:23.764Z,99233.99
2024-02-23T06:48:51.363Z,99234.91
2024-02-23T06:51:19.130Z,99234.27
2024-02-23T06:53:46.814Z,99233.29
2024-02-23T06:56:14.901Z,99234.24
2024-02-23T06:58:42.462Z,99232.27
2024-02-23T07:01:13.788Z,99235.05
2024-02-23T07:03:44.069Z,99223.62
2024-02-23T07:06:12.038Z,99232.95
2024-02-23T07:08:39.721Z,99231.60
2024-02-23T07:11:07.572Z,99229.98
2024-02-23T07:13:35.270Z,99232.73
2024-02-23T07:16:03.308Z,99237.80
2024-02-23T07:18:30.926Z,99250.08
2024-02-23T07:20:58.392Z,99242.95
2024-02-23T07:23:25.942Z,99248.82
2024-02-23T07:25:54.485Z,99242.63
2024-02-23T07:28:23.605Z,99254.39
2024-02-23T07:30:51.276Z,99259.77
2024-02-23T07:33:18.792Z,99262.83
2024-02-23T07:35:46.603Z,99256.97
2024-02-23T07:38:14.706Z,99256.21
2024-02-23T07:40:42.337Z,99263.04
2024-02-23T07:43:12.044Z,99266.73
2024-02-23T07:45:39.710Z,99270.98
2024-02-23T07:48:07.635Z,99270.34
2024-02-23T07:50:35.333Z,99270.02
2024-02-23T07:53:02.986Z,99271.29
2024-02-23T07:55:30.669Z,99269.63
2024-02-23T07:58:02.961Z,99268.27
2024-02-23T08:00:30.842Z,99266.19
2024-02-23T08:03:00.335Z,99267.96
2024-02-23T08:05:27.876Z,99273.43
2024-02-23T08:07:55.648Z,99282.83
2024-02-23T08:10:23.516Z,99289.39
2024-02-23T08:12:51.100Z,99275.85
2024-02-23T08:15:18.859Z,99279.48
2024-02-23T08:17:46.473Z,99277.61
2024-02-23T08:20:14.237Z,99281.59
2024-02-23T08:22:41.870Z,99283.30
2024-02-23T08:25:11.785Z,99289.55
2024-02-23T08:27:42.191Z,99303.66
2024-02-23T08:30:12.125Z,99307.21
2024-02-23T08:32:40.032Z,99300.58
2024-02-23T08:35:09.680Z,99299.79
2024-02-23T08:37:37.281Z,99295.96
2024-02-23T08:40:07.619Z,99297.20
2024-02-23T08:42:35.329Z,99297.80
2024-02-23T08:45:03.513Z,99298.70
2024-02-23T08:47:34.279Z,99299.40
2024-02-23T08:50:02.548Z,99304.30
2024-02-23T08:52:30.191Z,99299.73
2024-02-23T08:54:57.847Z,99304.96
2024-02-23T08:57:25.508Z,99315.22
2024-02-23T08:59:53.183Z,99319.63
2024-02-23T09:02:21.665Z,99317.74
2024-02-23T09:04:49.392Z,99321.35
2024-02-23T09:07:17.351Z,99322.63
2024-02-23T09:09:45.880Z,99324.14
2024-02-23T09:12:16.220Z,99323.87
2024-02-23T09:14:44.551Z,99320.23
2024-02-23T09:17:12.752Z,99325.77
2024-02-23T09:19:40.548Z,99325.98
2024-02-23T09:22:08.507Z,99330.64
2024-02-23T09:24:36.733Z,99326.84
2024-02-23T09:27:04.706Z,99326.12
2024-02-23T09:29:32.607Z,99323.54
2024-02-23T09:32:01.547Z,99327.41
2024-02-23T09:34:30.775Z,99325.30
2024-02-23T09:36:58.581Z,99330.25
2024-02-23T09:39:27.776Z,99335.82
2024-02-23T09:41:55.667Z,99338.41
2024-02-23T09:44:23.894Z,99338.35
2024-02-23T09:46:51.709Z,99343.55
2024-02-23T09:49:19.576Z,99344.36
2024-02-23T09:51:47.317Z,99350.28
2024-02-23T09:54:16.354Z,99343.12
2024-02-23T09:56:45.143Z,99344.19
2024-02-23T09:59:13.020Z,99341.05
2024-02-23T10:01:40.672Z,99333.11
2024-02-23T10:04:09.435Z,99340.79
2024-02-23T10:06:37.152Z,99343.08
2024-02-23T10:09:05.747Z,99336.78
2024-02-23T10:11:33.679Z,99337.27
2024-02-23T10:14:01.340Z,99341.61
2024-02-23T10:16:28.996Z,99337.68
2024-02-23T10:18:56.710Z,99336.05
2024-02-23T10:21:24.819Z,99334.92
2024-02-23T10:23:53.407Z,99331.40
2024-02-23T10:26:24.042Z,99335.17
2024-02-23T10:28:52.686Z,99334.42
2024-02-23T10:31:20.590Z,99335.58
2024-02-23T10:33:49.205Z,99334.92
2024-02-23T10:36:17.659Z,99335.92
2024-02-23T10:38:46.730Z,99338.33
2024-02-23T10:41:15.515Z,99328.27
2024-02-23T10:43:46.062Z,99330.40
2024-02-23T10:46:16.782Z,99330.55
2024-02-23T10:48:45.201Z,99325.14
2024-02-23T10:51:17.665Z,99318.77
2024-02-23T10:53:48.211Z,99315.05
2024-02-23T10:56:15.762Z,99324.64
2024-02-23T10:58:43.267Z,99326.93
2024-02-23T11:01:10.945Z,99325.27
2024-02-23T11:03:38.973Z,99325.41
2024-02-23T11:06:09.682Z,99322.80
2024-02-23T11:08:40.587Z,99317.86
2024-02-23T11:11:09.567Z,99322.71
2024-02-23T11:13:40.271Z,99318.13
2024-02-23T11:16:12.362Z,99322.26
2024-02-23T11:18:43.679Z,99318.61
2024-02-23T11:21:11.653Z,99319.98
2024-02-23T11:23:44.000Z,99321.79
2024-02-23T11:26:12.529Z,99323.03
2024-02-23T11:28:59.458Z,99317.64
2024-02-23T11:31:30.825Z,99319.79
2024-02-23T11:33:58.792Z,99320.02
2024-02-23T11:36:30.342Z,99317.58
2024-02-23T11:38:58.961Z,99320.95
2024-02-23T11:41:26.809Z,99321.36
2024-02-23T11:43:55.415Z,99318.44
2024-02-23T11:46:23.426Z,99321.66
2024-02-23T11:48:57.408Z,99326.55
2024-02-23T11:51:28.160Z,99327.41
2024-02-23T11:53:57.468Z,99328.09
2024-02-23T11:56:25.313Z,99327.45
2024-02-23T11:58:55.076Z,99326.81
2024-02-23T12:01:23.079Z,99322.73
2024-02-23T12:03:50.689Z,99324.86
2024-02-23T12:06:18.206Z,99326.77
2024-02-23T12:08:46.547Z,99330.40
2024-02-23T12:11:15.488Z,99330.52
2024-02-23T12:13:44.105Z,99331.59
2024-02-23T12:16:11.628Z,99332.65
2024-02-23T12:18:39.133Z,99326.94
2024-02-23T12:21:10.049Z,99328.05
2024-02-23T12:23:44.559Z,99333.57
2024-02-23T12:26:14.623Z,99336.08
2024-02-23T12:28:42.566Z,99339.81
2024-02-23T12:31:10.593Z,99338.98
2024-02-23T12:33:42.136Z,99337.59
2024-02-23T12:36:10.276Z,99340.23
2024-02-23T12:38:38.102Z,99334.88
2024-02-23T12:41:06.105Z,99343.37
2024-02-23T12:43:33.885Z,99345.74
2024-02-23T12:46:03.293Z,99347.88
2024-02-23T12:48:30.934Z,99348.83
2024-02-23T12:50:58.421Z,99352.22
2024-02-23T12:53:39.518Z,99353.13
2024-02-23T12:56:15.088Z,99353.05
2024-02-23T12:58:43.367Z,99354.53
2024-02-23T13:01:11.288Z,99352.65
2024-02-23T13:03:39.876Z,99356.51
2024-02-23T13:06:08.495Z,99354.65
2024-02-23T13:08:36.244Z,99358.75
2024-02-23T13:11:05.053Z,99361.20
2024-02-23T13:13:33.320Z,99363.05
2024-02-23T13:16:00.847Z,99366.05
2024-02-23T13:18:28.601Z,99363.83
2024-02-23T13:20:56.468Z,99359.95
2024-02-23T13:23:24.190Z,99360.56
2024-02-23T13:25:51.819Z,99359.09
2024-02-23T13:28:19.597Z,99356.41
2024-02-23T13:30:47.158Z,99361.04
2024-02-23T13:33:16.095Z,99363.81
2024-02-23T13:35:44.878Z,99361.29
2024-02-23T13:38:12.538Z,99366.26
2024-02-23T13:40:40.150Z,99367.33
2024-02-23T13:43:07.698Z,99368.98
2024-02-23T13:45:35.286Z,99368.23
2024-02-23T13:48:04.541Z,99372.15
2024-02-23T13:50:32.268Z,99377.41
2024-02-23T13:53:00.193Z,99372.10
2024-02-23T13:55:27.824Z,99371.11
2024-02-23T13:57:55.431Z,99370.08
2024-02-23T14:00:23.375Z,99366.06
2024-02-23T14:02:51.065Z,99363.63
2024-02-23T14:05:20.109Z,99369.72
2024-02-23T14:07:47.775Z,99363.02
2024-02-23T14:10:15.360Z,99363.43
2024-02-23T14:12:43.086Z,99363.05
2024-02-23T14:15:11.871Z,99362.39
2024-02-23T14:17:39.737Z,99364.21
2024-02-23T14:20:08.608Z,99357.88
2024-02-23T14:22:36.269Z,99359.55
2024-02-23T14:25:03.859Z,99364.32
2024-02-23T14:27:32.131Z,99364.82
2024-02-23T14:30:00.561Z,99371.92
2024-02-23T14:32:29.269Z,99371.92
2024-02-23T14:34:59.025Z,99368.14
2024-02-23T14:37:26.804Z,99368.80
2024-02-23T14:39:54.351Z,99361.86
2024-02-23T14:42:21.837Z,99368.98
2024-02-23T14:44:51.414Z,99372.51
2024-02-23T14:47:22.266Z,99372.48
2024-02-23T14:49:54.153Z,99378.11
2024-02-23T14:52:21.857Z,99375.24
2024-02-23T14:54:49.325Z,99374.83
2024-02-23T14:57:16.836Z,99374.80
2024-02-23T14:59:48.144Z,99376.38
2024-02-23T15:02:21.746Z,99384.78
2024-02-23T15:04:49.720Z,99383.17
2024-02-23T15:07:17.876Z,99389.89
2024-02-23T15:09:45.492Z,99395.23
2024-02-23T15:12:13.197Z,99395.89
2024-02-23T15:14:41.283Z,99399.92
2024-02-23T15:17:09.101Z,99400.95
2024-02-23T15:19:36.789Z,99406.88
2024-02-23T15:22:04.712Z,99408.64
2024-02-23T15:24:33.566Z,99411.83
2024-02-23T15:27:01.667Z,99416.30
2024-02-23T15:29:30.129Z,99416.96
2024-02-23T15:31:57.746Z,99417.30
2024-02-23T15:34:25.368Z,99410.75
2024-02-23T15:36:53.003Z,99414.23
2024-02-23T15:39:20.488Z,99417.77
2024-02-23T15:41:48.243Z,99422.48
2024-02-23T15:44:15.773Z,99425.77
2024-02-23T15:46:43.368Z,99426.84
2024-02-23T15:49:21.821Z,99425.52
2024-02-23T15:52:01.361Z,99430.38
2024-02-23T15:54:31.439Z,99432.73
2024-02-23T15:56:59.438Z,99435.31
2024-02-23T15:59:27.882Z,99438.85
2024-02-23T16:01:56.805Z,99441.34
2024-02-23T16:04:24.352Z,99442.96
2024-02-23T16:06:51.808Z,99447.16
2024-02-23T16:09:19.722Z,99450.08
2024-02-23T16:11:50.663Z,99450.23
2024-02-23T16:14:18.883Z,99455.73
2024-02-23T16:16:46.493Z,99456.35
2024-02-23T16:19:14.284Z,99460.15
2024-02-23T16:21:47.162Z,99462.14
2024-02-23T16:24:14.671Z,99462.95
2024-02-23T16:26:42.373Z,99465.52
2024-02-23T16:29:09.962Z,99468.90
2024-02-23T16:31:43.476Z,99471.54
2024-02-23T16:34:10.980Z,99474.05
2024-02-23T16:36:38.456Z,99476.48
2024-02-23T16:39:08.968Z,99476.15
2024-02-23T16:41:37.076Z,99481.52
2024-02-23T16:44:05.129Z,99482.86
2024-02-23T16:46:32.727Z,99487.27
2024-02-23T16:49:00.963Z,99490.45
2024-02-23T16:51:29.924Z,99488.76
2024-02-23T16:53:57.560Z,99487.34
2024-02-23T16:56:27.181Z,99493.16
2024-02-23T16:58:55.004Z,99490.88
2024-02-23T17:01:22.511Z,99490.01
2024-02-23T17:03:50.342Z,99492.04
2024-02-23T17:06:18.021Z,99495.33
2024-02-23T17:08:45.621Z,99494.67
2024-02-23T17:11:13.400Z,99495.41
2024-02-23T17:13:44.651Z,99496.43
2024-02-23T17:16:12.221Z,99497.02
2024-02-23T17:18:39.767Z,99499.37
2024-02-23T17:21:07.274Z,99497.31
2024-02-23T17:23:34.969Z,99499.78
2024-02-23T17:26:02.620Z,99498.98
2024-02-23T17:28:30.126Z,99501.52
2024-02-23T17:30:57.606Z,99501.70
2024-02-23T17:33:25.181Z,99503.20
2024-02-23T17:35:52.698Z,99500.55
2024-02-23T17:38:20.259Z,99503.17
2024-02-23T17:40:51.727Z,99504.11
2024-02-23T17:43:19.494Z,99502.78
2024-02-23T17:45:46.954Z,99507.08
2024-02-23T17:48:14.542Z,99508.31
2024-02-23T17:50:42.078Z,99511.41
2024-02-23T17:53:09.841Z,99513.85
2024-02-23T17:55:37.374Z,99511.40
2024-02-23T17:58:12.428Z,99515.81
2024-02-23T18:00:47.278Z,99515.88
2024-02-23T18:03:14.878Z,99514.59
2024-02-23T18:05:42.470Z,99520.81
2024-02-23T18:08:10.163Z,99517.60
2024-02-23T18:10:39.019Z,99521.06
2024-02-23T18:13:06.557Z,99521.40
2024-02-23T18:15:34.150Z,99519.85
2024-02-23T18:18:01.869Z,99523.30
2024-02-23T18:20:29.522Z,99518.45
2024-02-23T18:22:57.885Z,99515.36
2024-02-23T18:25:25.666Z,99516.65
2024-02-23T18:27:53.220Z,99518.77
2024-02-23T18:30:20.913Z,99528.27
2024-02-23T18:32:48.603Z,99523.96
2024-02-23T18:35:16.333Z,99531.45
2024-02-23T18:37:46.359Z,99533.45
2024-02-23T18:40:15.513Z,99533.08
2024-02-23T18:42:43.039Z,99539.02
2024-02-23T18:45:10.857Z,99540.77
2024-02-23T18:47:38.524Z,99536.97
2024-02-23T18:50:06.325Z,99544.05
2024-02-23T18:52:34.410Z,99545.55
2024-02-23T18:55:02.091Z,99542.35
2024-02-23T18:57:30.708Z,99542.54
2024-02-23T18:59:58.346Z,99544.86
2024-02-23T19:02:25.990Z,99547.34
2024-02-23T19:04:53.675Z,99547.21
2024-02-23T19:07:21.274Z,99545.89
2024-02-23T19:09:48.792Z,99542.30
2024-02-23T19:12:16.728Z,99538.48
2024-02-23T19:14:44.434Z,99540.52
2024-02-23T19:17:12.345Z,99537.20
2024-02-23T19:19:40.026Z,99532.80
2024-02-23T19:22:07.669Z,99537.60
2024-02-23T19:24:35.635Z,99540.86
2024-02-23T19:27:03.266Z,99544.27
2024-02-23T19:29:31.182Z,99541.77
2024-02-23T19:31:58.965Z,99544.66
2024-02-23T19:34:26.711Z,99549.86
2024-02-23T19:36:55.558Z,99549.46
2024-02-23T19:39:23.293Z,99553.63
2024-02-23T19:41:50.912Z,99553.10
2024-02-23T19:44:18.738Z,99556.52
2024-02-23T19:46:48.063Z,99554.98
2024-02-23T19:49:15.713Z,99553.71
2024-02-23T19:51:43.278Z,99551.80
2024-02-23T19:54:10.783Z,99554.58
2024-02-23T19:56:38.378Z,99562.80
2024-02-23T19:59:06.020Z,99563.39
2024-02-23T20:01:33.581Z,99564.19
2024-02-23T20:04:01.606Z,99566.10
2024-02-23T20:06:29.266Z,99569.38
2024-02-23T20:08:56.792Z,99567.34
2024-02-23T20:11:24.500Z,99568.24
2024-02-23T20:13:52.300Z,99565.57
2024-02-23T20:16:20.239Z,99564.46
2024-02-23T20:18:47.890Z,99571.70
2024-02-23T20:21:15.583Z,99566.91
2024-02-23T20:23:43.280Z,99564.45
2024-02-23T20:26:11.298Z,99561.14
2024-02-23T20:28:38.855Z,99556.04
2024-02-23T20:31:07.744Z,99550.23
2024-02-23T20:33:35.667Z,99545.24
2024-02-23T20:36:03.793Z,99545.59
2024-02-23T20:38:31.780Z,99543.09
2024-02-23T20:40:59.739Z,99545.38
2024-02-23T20:43:27.891Z,99539.83
2024-02-23T20:45:57.318Z,99539.79
2024-02-23T20:48:25.112Z,99541.31
2024-02-23T20:50:52.856Z,99541.06
2024-02-23T20:53:20.494Z,99539.89
2024-02-23T20:55:50.902Z,99536.77
2024-02-23T20:58:18.929Z,99547.02
2024-02-23T21:00:49.372Z,99555.11
2024-02-23T21:03:17.822Z,99559.69
2024-02-23T21:05:45.471Z,99564.98
2024-02-23T21:08:13.339Z,99562.98
2024-02-23T21:10:41.489Z,99567.66
2024-02-23T21:13:09.099Z,99567.45
2024-02-23T21:15:38.066Z,99569.27
2024-02-23T21:18:06.468Z,99577.35
2024-02-23T21:20:34.203Z,99580.64
2024-02-23T21:23:01.769Z,99580.88
2024-02-23T21:25:29.288Z,99583.87
2024-02-23T21:27:56.810Z,99589.11
2024-02-23T21:30:24.319Z,99589.80
2024-02-23T21:32:52.694Z,99593.03
2024-02-23T21:35:21.403Z,99592.27
2024-02-23T21:37:49.031Z,99592.39
2024-02-23T21:40:17.671Z,99591.89
2024-02-23T21:42:45.866Z,99594.75
2024-02-23T21:45:13.537Z,99593.02
2024-02-23T21:47:41.034Z,99591.77
2024-02-23T21:50:09.847Z,99590.17
2024-02-23T21:52:40.248Z,99586.71
2024-02-23T21:55:09.983Z,99582.35
2024-02-23T21:57:37.591Z,99581.74
2024-02-23T22:00:06.113Z,99582.30
2024-02-23T22:02:33.647Z,99578.84
2024-02-23T22:05:02.658Z,99574.92
2024-02-23T22:07:30.326Z,99572.60
2024-02-23T22:09:57.905Z,99578.33
2024-02-23T22:12:27.534Z,99585.33
2024-02-23T22:14:55.471Z,99590.61
2024-02-23T22:17:22.993Z,99594.59
2024-02-23T22:19:50.607Z,99599.80
2024-02-23T22:22:18.682Z,99598.36
2024-02-23T22:24:46.243Z,99597.81
2024-02-23T22:27:16.404Z,99598.14
2024-02-23T22:29:46.549Z,99599.60
2024-02-23T22:32:14.324Z,99597.45
2024-02-23T22:34:41.926Z,99600.33
2024-02-23T22:37:09.446Z,99602.53
2024-02-23T22:39:36.939Z,99607.81
2024-02-23T22:42:05.658Z,99608.94
2024-02-23T22:44:33.350Z,99610.29
2024-02-23T22:47:00.895Z,99612.01
2024-02-23T22:49:28.410Z,99613.56
2024-02-23T22:51:55.897Z,99614.58
2024-02-23T22:54:23.368Z,99612.48
2024-02-23T22:56:50.968Z,99608.71
2024-02-23T22:59:19.147Z,99617.06
2024-02-23T23:01:46.875Z,99615.67
2024-02-23T23:04:14.403Z,99614.27
2024-02-23T23:06:45.896Z,99618.41
2024-02-23T23:09:13.722Z,99620.20
2024-02-23T23:11:41.479Z,99619.30
2024-02-23T23:14:09.226Z,99620.69
2024-02-23T23:16:36.848Z,99624.13
2024-02-23T23:19:04.574Z,99624.45
2024-02-23T23:21:32.382Z,99624.63
2024-02-23T23:24:00.012Z,99625.27
2024-02-23T23:26:27.769Z,99623.27
2024-02-23T23:28:56.492Z,99624.79
2024-02-23T23:31:26.193Z,99623.48
2024-02-23T23:33:55.582Z,99626.08
2024-02-23T23:36:23.260Z,99627.15
2024-02-23T23:38:50.841Z,99621.97
2024-02-23T23:41:18.499Z,99624.14
2024-02-23T23:43:46.742Z,99623.07
2024-02-23T23:46:15.032Z,99627.86
2024-02-23T23:48:42.725Z,99624.73
2024-02-23T23:51:10.478Z,99627.17
2024-02-23T23:53:38.170Z,99632.49
2024-02-23T23:56:05.917Z,99627.54
2024-02-23T23:58:33.438Z,99627.32
